ADDS TAF Board (Experimental) INFO

IDs: Format: Expanded Condensed

Updated at: 0612 UTC 31 Oct 2014

KJFK - New York/Kennedy Int, NY, US

Issued at 0537 UTC 31 Oct 2014
Time0551Z31/07Z31/08Z31/09Z31/10Z31/11Z31/12Z31/13Z31/14Z31/15Z31/16Z31/17Z31/18Z31/19Z
TypeOBSPRVLPRVLPRVLPRVLPRVLPRVLPRVLPRVLPRVLPRVLPRVLPRVLPRVL
VIS10>6>6>6>6>6>6>6>6>6>6>6>6>6
CIG----------------404040403535
CoverSCTSCTSCTSCTSCTSCTSCTSCTBKNBKNBKNBKNBKNBKN
FltCat--VFRVFRVFRVFRVFRVFRVFRVFRVFRVFRVFRVFRVFR
WX----------------------------
WDir360350350350350350350350303030307070
WSpd67777777777788
WGst----------------------------
R04/22
XWnd355555550000-5-5
HWnd55555555777766
R13/31
XWnd55555555777766
HWnd-3-5-5-5-5-5-5-5-0-0-0-055
Raw TAF
KJFK 310537Z 3106/0112 35007KT P6SM SCT050
  FM311400 03007KT P6SM BKN040
  FM311800 07008KT P6SM BKN035
  TEMPO 3122/0102 -RA
  FM010200 04012KT P6SM -RA OVC025
  FM010700 03015G20KT 5SM -RA BR OVC020


Raw METAR
KJFK 310551Z 36006KT 10SM SCT050 08/03 A3002 RMK AO2 SLP167 T00830028 10117 20083 55002

TAF Board Legend

Hazard VFR MVFR IFR LIFR
Visibility (sm) >5 3≤X≤5 1≤X<3 <1
Ceiling (100 ft) >30 10≤X≤30 5≤X<10 <5
Wind Speed (kt) <10 10≤X<20 20≤X<30 ≥30
Wind Gust (kt) <15 15≤X<25 25≤X<35 ≥35
Weather No Wx Reported VCTS,-TS,-FZRA TS,FZRA +TS,+FZRA


Page loaded:  06:12 UTC  |   11:12 PM Pacific  |   12:12 AM Mountain  |   01:12 AM Central  |   02:12 AM Eastern

 

ADVISORIES

FORECASTS

FORECASTS

OBSERVATIONS

USER TOOLS

ABOUT US